Toulon, Illinois
Current Conditions -  °F | °C
As of 7:55 AM on Thursday 23 Oct 2014 (Local Time) from KC75 Reporting Station
Clear Clear  
Wind Chill: 36°   Ceiling: Unl
Heat Index: 40°   Visibility: 10mi
Dew Point: 36°   Wind: 6mph
Humidity: 85%   Direction: 140°SE
Pressure: 30.19"   Gusts: NA
Location:  41.09°N, 89.86°W
Report Text: KC75 231255Z AUTO 14005KT 10SM CLR 04/02 A3019 RMK AO2 T00430020
Loading
Personal Weather Stations






























Interactive Weather Map
Tropical Storm Tracking
New forecast layout! Learn more

10-Day Weather Forecast

Advertisements
Track Severe Weather on mobile